createdAt,value
2018-10-05T00:02:14.218Z,99079.00
2018-10-05T00:04:44.793Z,99079.96
2018-10-05T00:07:15.836Z,99092.11
2018-10-05T00:09:46.450Z,99096.69
2018-10-05T00:12:17.107Z,99092.18
2018-10-05T00:14:47.709Z,99090.11
2018-10-05T00:17:18.286Z,99084.34
2018-10-05T00:19:49.170Z,99080.98
2018-10-05T00:22:20.040Z,99078.91
2018-10-05T00:24:50.568Z,99077.95
2018-10-05T00:27:22.070Z,99070.75
2018-10-05T00:29:52.629Z,99074.26
2018-10-05T00:32:23.309Z,99077.88
2018-10-05T00:34:54.019Z,99074.11
2018-10-05T00:37:24.615Z,99069.01
2018-10-05T00:39:55.202Z,99072.99
2018-10-05T00:42:25.958Z,99072.63
2018-10-05T00:44:56.551Z,99068.23
2018-10-05T00:47:27.087Z,99069.63
2018-10-05T00:49:57.761Z,99061.88
2018-10-05T00:52:28.345Z,99061.81
2018-10-05T00:54:59.021Z,99059.84
2018-10-05T00:57:29.566Z,99065.69
2018-10-05T01:00:00.825Z,99066.30
2018-10-05T01:02:31.773Z,99067.19
2018-10-05T01:05:02.414Z,99065.19
2018-10-05T01:07:33.112Z,99075.03
2018-10-05T01:10:03.707Z,99072.69
2018-10-05T01:12:34.276Z,99070.08
2018-10-05T01:15:05.074Z,99071.78
2018-10-05T01:17:35.676Z,99073.21
2018-10-05T01:20:06.331Z,99074.40
2018-10-05T01:22:37.173Z,99073.11
2018-10-05T01:25:07.727Z,99076.38
2018-10-05T01:30:11.578Z,99067.13
2018-10-05T01:32:44.022Z,99071.78
2018-10-05T01:35:14.934Z,99067.51
2018-10-05T01:37:45.566Z,99067.64
2018-10-05T01:40:16.113Z,99068.02
2018-10-05T01:42:46.900Z,99073.25
2018-10-05T01:45:17.454Z,99077.56
2018-10-05T01:47:48.143Z,99065.50
2018-10-05T01:50:18.679Z,99074.98
2018-10-05T01:52:49.268Z,99068.86
2018-10-05T01:55:21.684Z,99068.86
2018-10-05T01:57:52.279Z,99066.39
2018-10-05T02:00:22.834Z,99065.09
2018-10-05T02:02:53.615Z,99069.30
2018-10-05T02:05:24.196Z,99074.88
2018-10-05T02:07:54.800Z,99072.16
2018-10-05T02:10:26.006Z,99077.90
2018-10-05T02:12:58.250Z,99079.50
2018-10-05T02:15:32.670Z,99076.74
2018-10-05T02:18:03.237Z,99077.19
2018-10-05T02:20:36.458Z,99078.81
2018-10-05T02:23:07.269Z,99072.80
2018-10-05T02:25:37.845Z,99080.61
2018-10-05T02:28:08.411Z,99076.74
2018-10-05T02:30:39.058Z,99073.92
2018-10-05T02:33:10.291Z,99074.33
2018-10-05T02:35:40.851Z,99076.47
2018-10-05T02:38:11.473Z,99074.26
2018-10-05T02:40:41.991Z,99068.83
2018-10-05T02:43:12.828Z,99071.34
2018-10-05T02:45:43.797Z,99076.19
2018-10-05T02:48:14.536Z,99079.15
2018-10-05T02:50:45.114Z,99081.02
2018-10-05T02:53:15.702Z,99077.58
2018-10-05T02:55:46.342Z,99077.68
2018-10-05T02:58:16.911Z,99078.70
2018-10-05T03:03:02.358Z,99075.80
2018-10-05T03:05:33.011Z,99078.04
2018-10-05T03:08:03.635Z,99075.97
2018-10-05T03:10:34.193Z,99078.27
2018-10-05T03:13:08.581Z,99078.27
2018-10-05T03:15:39.081Z,99072.70
2018-10-05T03:18:09.656Z,99082.23
2018-10-05T03:20:40.254Z,99077.77
2018-10-05T03:23:10.899Z,99080.44
2018-10-05T03:25:41.680Z,99076.13
2018-10-05T03:28:12.260Z,99080.03
2018-10-05T03:30:42.957Z,99081.04
2018-10-05T03:33:13.486Z,99081.95
2018-10-05T03:35:46.184Z,99079.81
2018-10-05T03:38:16.743Z,99079.53
2018-10-05T03:40:47.257Z,99080.38
2018-10-05T03:43:17.826Z,99076.01
2018-10-05T03:45:49.146Z,99072.73
2018-10-05T03:48:19.822Z,99071.89
2018-10-05T03:50:50.366Z,99074.31
2018-10-05T03:53:20.977Z,99070.80
2018-10-05T03:55:51.677Z,99063.84
2018-10-05T03:58:22.209Z,99069.28
2018-10-05T04:00:52.772Z,99068.80
2018-10-05T04:03:24.308Z,99065.13
2018-10-05T04:05:54.978Z,99072.11
2018-10-05T04:08:26.678Z,99074.34
2018-10-05T04:10:59.110Z,99078.22
2018-10-05T04:13:29.772Z,99081.42
2018-10-05T04:16:00.279Z,99085.70
2018-10-05T04:18:31.752Z,99087.15
2018-10-05T04:21:02.389Z,99083.88
2018-10-05T04:23:33.035Z,99089.16
2018-10-05T04:26:04.613Z,99092.97
2018-10-05T04:28:36.497Z,99090.73
2018-10-05T04:31:14.429Z,99089.31
2018-10-05T04:33:46.098Z,99096.11
2018-10-05T04:36:17.359Z,99098.95
2018-10-05T04:38:47.926Z,99099.33
2018-10-05T04:41:18.490Z,99102.75
2018-10-05T04:43:55.228Z,99109.42
2018-10-05T04:46:29.831Z,99105.55
2018-10-05T04:49:00.359Z,99111.84
2018-10-05T04:51:31.658Z,99114.05
2018-10-05T04:54:02.204Z,99113.38
2018-10-05T04:56:32.892Z,99117.09
2018-10-05T04:59:03.686Z,99117.48
2018-10-05T05:01:35.101Z,99121.51
2018-10-05T05:04:06.332Z,99123.99
2018-10-05T05:06:37.083Z,99128.92
2018-10-05T05:09:08.928Z,99132.84
2018-10-05T05:11:39.465Z,99136.20
2018-10-05T05:14:10.176Z,99147.83
2018-10-05T05:16:40.720Z,99140.77
2018-10-05T05:19:13.544Z,99150.08
2018-10-05T05:21:44.602Z,99156.27
2018-10-05T05:24:27.870Z,99152.59
2018-10-05T05:26:58.706Z,99158.65
2018-10-05T05:29:29.309Z,99160.48
2018-10-05T05:31:59.856Z,99160.95
2018-10-05T05:34:30.395Z,99166.39
2018-10-05T05:37:00.943Z,99166.28
2018-10-05T05:39:32.675Z,99170.33
2018-10-05T05:42:04.429Z,99168.91
2018-10-05T05:44:40.715Z,99168.42
2018-10-05T05:47:15.676Z,99168.69
2018-10-05T05:49:46.201Z,99170.11
2018-10-05T05:52:16.845Z,99183.78
2018-10-05T05:54:47.473Z,99178.87
2018-10-05T05:57:18.212Z,99179.34
2018-10-05T05:59:48.745Z,99187.42
2018-10-05T06:02:19.273Z,99186.11
2018-10-05T06:04:51.818Z,99191.03
2018-10-05T06:07:23.705Z,99194.06
2018-10-05T06:09:55.189Z,99200.50
2018-10-05T06:12:26.427Z,99197.39
2018-10-05T06:14:57.043Z,99204.78
2018-10-05T06:17:29.392Z,99203.73
2018-10-05T06:20:02.684Z,99203.42
2018-10-05T06:22:33.528Z,99208.13
2018-10-05T06:25:04.445Z,99211.11
2018-10-05T06:27:36.182Z,99214.88
2018-10-05T06:30:07.104Z,99212.20
2018-10-05T06:32:37.642Z,99217.61
2018-10-05T06:35:08.259Z,99218.83
2018-10-05T06:37:38.942Z,99218.05
2018-10-05T06:40:09.581Z,99222.43
2018-10-05T06:42:40.234Z,99222.59
2018-10-05T06:45:11.316Z,99225.91
2018-10-05T06:47:42.173Z,99231.41
2018-10-05T06:50:13.904Z,99227.92
2018-10-05T06:52:44.622Z,99233.14
2018-10-05T06:55:15.254Z,99234.59
2018-10-05T06:57:48.118Z,99234.15
2018-10-05T07:00:18.758Z,99233.33
2018-10-05T07:02:49.305Z,99231.50
2018-10-05T07:05:25.976Z,99235.47
2018-10-05T07:07:58.047Z,99232.98
2018-10-05T07:10:28.701Z,99241.56
2018-10-05T07:12:59.349Z,99242.11
2018-10-05T07:15:30.109Z,99239.53
2018-10-05T07:18:00.777Z,99237.70
2018-10-05T07:20:32.037Z,99235.70
2018-10-05T07:23:03.126Z,99238.87
2018-10-05T07:25:33.825Z,99243.85
2018-10-05T07:28:04.424Z,99242.64
2018-10-05T07:30:35.480Z,99244.25
2018-10-05T07:33:10.414Z,99241.12
2018-10-05T07:35:40.975Z,99242.02
2018-10-05T07:38:11.613Z,99235.91
2018-10-05T07:40:42.066Z,99237.44
2018-10-05T07:43:12.737Z,99233.45
2018-10-05T07:45:43.314Z,99239.05
2018-10-05T07:48:14.510Z,99243.94
2018-10-05T07:50:45.054Z,99237.89
2018-10-05T07:53:15.694Z,99242.17
2018-10-05T07:55:46.251Z,99248.49
2018-10-05T07:58:17.322Z,99241.67
2018-10-05T08:00:47.787Z,99238.93
2018-10-05T08:03:18.934Z,99247.16
2018-10-05T08:06:03.580Z,99251.35
2018-10-05T08:08:41.102Z,99242.98
2018-10-05T08:11:11.729Z,99249.97
2018-10-05T08:13:42.370Z,99247.37
2018-10-05T08:16:13.009Z,99244.67
2018-10-05T08:18:43.547Z,99247.13
2018-10-05T08:21:14.077Z,99246.91
2018-10-05T08:23:44.705Z,99247.58
2018-10-05T08:26:15.398Z,99248.28
2018-10-05T08:28:46.297Z,99252.78
2018-10-05T08:31:16.776Z,99257.69
2018-10-05T08:33:47.548Z,99256.69
2018-10-05T08:36:18.121Z,99259.46
2018-10-05T08:38:48.727Z,99262.36
2018-10-05T08:41:19.238Z,99259.77
2018-10-05T08:43:49.720Z,99265.94
2018-10-05T08:46:20.442Z,99259.63
2018-10-05T08:48:51.122Z,99262.48
2018-10-05T08:51:21.712Z,99249.56
2018-10-05T08:53:56.737Z,99258.48
2018-10-05T08:56:27.306Z,99258.08
2018-10-05T08:58:57.932Z,99256.33
2018-10-05T09:01:28.522Z,99254.73
2018-10-05T09:03:59.239Z,99257.55
2018-10-05T09:06:29.962Z,99251.03
2018-10-05T09:09:00.812Z,99253.57
2018-10-05T09:11:32.631Z,99258.69
2018-10-05T09:14:03.241Z,99256.63
2018-10-05T09:21:37.192Z,99261.57
2018-10-05T09:24:09.655Z,99262.91
2018-10-05T09:26:40.272Z,99262.00
2018-10-05T09:29:10.774Z,99270.27
2018-10-05T09:31:41.970Z,99260.15
2018-10-05T09:34:13.136Z,99257.48
2018-10-05T09:36:44.762Z,99255.53
2018-10-05T09:39:15.394Z,99257.30
2018-10-05T09:41:46.551Z,99256.55
2018-10-05T09:44:17.279Z,99254.87
2018-10-05T09:46:48.089Z,99254.66
2018-10-05T09:49:19.247Z,99250.55
2018-10-05T09:51:49.767Z,99243.08
2018-10-05T09:54:21.489Z,99250.23
2018-10-05T09:56:52.083Z,99251.99
2018-10-05T09:59:23.387Z,99237.70
2018-10-05T10:01:58.716Z,99238.12
2018-10-05T10:04:29.229Z,99235.78
2018-10-05T10:07:04.034Z,99240.21
2018-10-05T10:09:34.651Z,99237.48
2018-10-05T10:12:05.252Z,99233.61
2018-10-05T10:14:35.778Z,99230.11
2018-10-05T10:17:07.511Z,99228.05
2018-10-05T10:19:38.391Z,99229.69
2018-10-05T10:22:09.134Z,99217.74
2018-10-05T10:24:39.804Z,99225.33
2018-10-05T10:27:10.369Z,99227.94
2018-10-05T10:29:40.893Z,99224.81
2018-10-05T10:32:12.018Z,99216.97
2018-10-05T10:34:42.518Z,99220.21
2018-10-05T10:37:13.092Z,99218.04
2018-10-05T10:39:43.841Z,99216.05
2018-10-05T10:42:14.462Z,99209.27
2018-10-05T10:44:45.077Z,99215.00
2018-10-05T10:47:15.582Z,99205.97
2018-10-05T10:49:46.196Z,99205.45
2018-10-05T10:52:16.746Z,99200.30
2018-10-05T10:54:47.305Z,99196.86
2018-10-05T10:57:17.929Z,99197.08
2018-10-05T10:59:48.623Z,99194.95
2018-10-05T11:02:19.088Z,99191.72
2018-10-05T11:04:49.624Z,99189.72
2018-10-05T11:07:21.402Z,99185.15
2018-10-05T11:09:51.896Z,99191.49
2018-10-05T11:12:22.503Z,99199.89
2018-10-05T11:14:53.073Z,99192.72
2018-10-05T11:17:23.561Z,99197.97
2018-10-05T11:19:54.404Z,99197.61
2018-10-05T11:22:24.985Z,99189.73
2018-10-05T11:24:55.576Z,99188.58
2018-10-05T11:27:26.241Z,99194.17
2018-10-05T11:29:56.662Z,99187.55
2018-10-05T11:32:27.254Z,99188.39
2018-10-05T11:34:58.152Z,99185.98
2018-10-05T11:37:28.774Z,99192.12
2018-10-05T11:39:59.541Z,99188.28
2018-10-05T11:42:30.115Z,99186.59
2018-10-05T11:45:00.835Z,99184.06
2018-10-05T11:47:31.359Z,99177.05
2018-10-05T11:50:01.987Z,99179.97
2018-10-05T11:52:32.719Z,99183.83
2018-10-05T11:55:03.299Z,99172.27
2018-10-05T11:57:33.851Z,99170.81
2018-10-05T12:00:05.460Z,99180.27
2018-10-05T12:02:42.760Z,99174.07
2018-10-05T12:05:14.358Z,99176.08
2018-10-05T12:07:45.158Z,99176.55
2018-10-05T12:10:15.717Z,99171.29
2018-10-05T12:12:46.374Z,99168.73
2018-10-05T12:15:16.957Z,99167.05
2018-10-05T12:17:47.458Z,99168.70
2018-10-05T12:20:18.208Z,99172.51
2018-10-05T12:22:49.762Z,99169.25
2018-10-05T12:25:20.362Z,99164.89
2018-10-05T12:27:50.862Z,99162.09
2018-10-05T12:30:22.215Z,99159.59
2018-10-05T12:32:52.792Z,99157.75
2018-10-05T12:35:23.428Z,99153.89
2018-10-05T12:37:54.015Z,99155.06
2018-10-05T12:40:24.729Z,99157.14
2018-10-05T12:42:55.249Z,99154.03
2018-10-05T12:45:25.836Z,99157.02
2018-10-05T12:47:57.864Z,99149.88
2018-10-05T12:50:28.416Z,99149.56
2018-10-05T12:52:58.944Z,99145.25
2018-10-05T12:55:29.530Z,99148.51
2018-10-05T12:58:00.084Z,99140.99
2018-10-05T13:00:30.926Z,99139.78
2018-10-05T13:03:01.406Z,99141.55
2018-10-05T13:05:31.958Z,99140.36
2018-10-05T13:08:02.566Z,99137.94
2018-10-05T13:10:33.128Z,99138.78
2018-10-05T13:13:03.801Z,99131.94
2018-10-05T13:15:35.843Z,99135.85
2018-10-05T13:18:06.453Z,99124.25
2018-10-05T13:20:37.219Z,99124.23
2018-10-05T13:23:07.825Z,99129.66
2018-10-05T13:25:38.499Z,99124.39
2018-10-05T13:28:09.031Z,99128.05
2018-10-05T13:30:39.545Z,99119.63
2018-10-05T13:33:10.060Z,99128.57
2018-10-05T13:35:41.754Z,99121.30
2018-10-05T13:38:12.384Z,99123.81
2018-10-05T13:40:42.947Z,99123.84
2018-10-05T13:43:14.105Z,99121.58
2018-10-05T13:45:44.663Z,99117.72
2018-10-05T13:48:15.218Z,99117.66
2018-10-05T13:50:46.387Z,99116.30
2018-10-05T13:53:16.904Z,99115.46
2018-10-05T13:55:48.097Z,99118.52
2018-10-05T13:58:18.645Z,99114.77
2018-10-05T14:00:49.310Z,99114.44
2018-10-05T14:03:19.948Z,99113.86
2018-10-05T14:05:51.484Z,99106.78
2018-10-05T14:08:22.021Z,99119.83
2018-10-05T14:10:52.587Z,99107.92
2018-10-05T14:13:23.137Z,99111.33
2018-10-05T14:15:53.732Z,99114.68
2018-10-05T14:18:24.157Z,99112.80
2018-10-05T14:20:54.882Z,99118.02
2018-10-05T14:23:25.541Z,99115.75
2018-10-05T14:25:56.044Z,99114.69
2018-10-05T14:28:26.684Z,99111.91
2018-10-05T14:30:57.250Z,99107.08
2018-10-05T14:33:28.769Z,99103.17
2018-10-05T14:35:59.286Z,99104.30
2018-10-05T14:38:29.761Z,99106.91
2018-10-05T14:41:02.124Z,99106.00
2018-10-05T14:43:32.704Z,99109.17
2018-10-05T14:46:03.203Z,99102.82
2018-10-05T14:48:33.828Z,99106.67
2018-10-05T14:51:04.405Z,99101.00
2018-10-05T14:53:35.066Z,99107.80
2018-10-05T14:56:05.651Z,99110.58
2018-10-05T14:58:36.270Z,99102.41
2018-10-05T15:01:07.011Z,99106.31
2018-10-05T15:03:37.500Z,99105.75
2018-10-05T15:06:08.067Z,99112.47
2018-10-05T15:08:38.549Z,99105.67
2018-10-05T15:11:09.128Z,99109.97
2018-10-05T15:13:39.575Z,99109.22
2018-10-05T15:16:10.243Z,99105.87
2018-10-05T15:18:40.732Z,99101.74
2018-10-05T15:23:44.377Z,99098.28
2018-10-05T15:26:14.919Z,99099.97
2018-10-05T15:28:45.504Z,99097.36
2018-10-05T15:31:16.099Z,99082.57
2018-10-05T15:33:46.685Z,99089.65
2018-10-05T15:36:17.255Z,99089.45
2018-10-05T15:38:47.796Z,99096.03
2018-10-05T15:41:18.505Z,99093.34
2018-10-05T15:43:49.128Z,99090.45
2018-10-05T15:47:23.462Z,99095.84
2018-10-05T15:49:54.024Z,99096.95
2018-10-05T15:52:24.678Z,99093.41
2018-10-05T15:54:55.219Z,99096.45
2018-10-05T15:57:25.764Z,99097.39
2018-10-05T15:59:56.296Z,99099.15
2018-10-05T16:02:26.987Z,99094.11
2018-10-05T16:04:57.695Z,99093.92
2018-10-05T16:07:28.185Z,99097.70
2018-10-05T16:09:58.719Z,99097.76
2018-10-05T16:12:29.225Z,99088.35
2018-10-05T16:14:59.742Z,99092.42
2018-10-05T16:17:30.256Z,99091.11
2018-10-05T16:20:00.970Z,99088.28
2018-10-05T16:22:33.387Z,99088.05
2018-10-05T16:25:04.633Z,99089.79
2018-10-05T16:27:35.732Z,99095.55
2018-10-05T16:30:06.690Z,99094.69
2018-10-05T16:32:37.274Z,99088.83
2018-10-05T16:35:08.124Z,99087.44
2018-10-05T16:37:38.620Z,99090.38
2018-10-05T16:40:09.141Z,99087.48
2018-10-05T16:42:39.853Z,99088.03
2018-10-05T16:45:10.384Z,99092.63
2018-10-05T16:47:40.935Z,99091.02
2018-10-05T16:50:11.389Z,99100.18
2018-10-05T16:52:42.041Z,99098.77
2018-10-05T16:55:13.485Z,99095.41
2018-10-05T16:57:46.137Z,99102.25
2018-10-05T17:00:16.951Z,99096.30
2018-10-05T17:02:47.638Z,99092.45
2018-10-05T17:05:18.181Z,99097.17
2018-10-05T17:07:49.702Z,99097.89
2018-10-05T17:10:20.214Z,99092.80
2018-10-05T17:12:52.958Z,99088.50
2018-10-05T17:15:27.216Z,99093.94
2018-10-05T17:17:57.828Z,99097.83
2018-10-05T17:20:28.430Z,99094.87
2018-10-05T17:22:59.100Z,99093.81
2018-10-05T17:25:29.645Z,99093.59
2018-10-05T17:28:01.636Z,99090.69
2018-10-05T17:30:33.605Z,99096.52
2018-10-05T17:33:04.261Z,99091.47
2018-10-05T17:35:34.839Z,99103.52
2018-10-05T17:38:06.772Z,99100.72
2018-10-05T17:40:37.270Z,99098.39
2018-10-05T17:43:09.059Z,99100.25
2018-10-05T17:45:40.223Z,99101.13
2018-10-05T17:48:10.755Z,99101.26
2018-10-05T17:50:41.866Z,99104.03
2018-10-05T17:53:12.391Z,99103.72
2018-10-05T17:55:43.105Z,99104.09
2018-10-05T17:58:13.671Z,99105.44
2018-10-05T18:00:45.583Z,99104.01
2018-10-05T18:03:19.183Z,99110.33
2018-10-05T18:05:51.978Z,99108.75
2018-10-05T18:08:26.605Z,99111.09
2018-10-05T18:10:58.389Z,99108.36
2018-10-05T18:13:29.038Z,99113.02
2018-10-05T18:15:59.651Z,99108.58
2018-10-05T18:18:30.248Z,99107.73
2018-10-05T18:21:00.875Z,99110.81
2018-10-05T18:23:32.449Z,99108.81
2018-10-05T18:26:04.894Z,99109.97
2018-10-05T18:28:42.607Z,99112.66
2018-10-05T18:31:13.829Z,99110.95
2018-10-05T18:33:50.865Z,99105.40
2018-10-05T18:36:22.935Z,99109.66
2018-10-05T18:38:53.582Z,99108.76
2018-10-05T18:44:15.320Z,99106.53
2018-10-05T18:46:46.488Z,99109.80
2018-10-05T18:49:17.005Z,99109.03
2018-10-05T18:52:01.835Z,99110.05
2018-10-05T18:54:32.787Z,99114.41
2018-10-05T18:57:14.238Z,99115.30
2018-10-05T18:59:44.904Z,99107.46
2018-10-05T19:02:23.749Z,99122.19
2018-10-05T19:05:02.989Z,99117.67
2018-10-05T19:07:33.618Z,99117.08
2018-10-05T19:10:04.335Z,99121.48
2018-10-05T19:12:35.747Z,99123.09
2018-10-05T19:15:08.338Z,99129.27
2018-10-05T19:17:38.975Z,99124.02
2018-10-05T19:20:09.573Z,99129.73
2018-10-05T19:22:41.173Z,99130.09
2018-10-05T19:25:18.899Z,99132.38
2018-10-05T19:27:52.201Z,99133.09
2018-10-05T19:30:30.457Z,99131.08
2018-10-05T19:33:01.779Z,99127.67
2018-10-05T19:35:36.957Z,99134.53
2018-10-05T19:38:09.912Z,99126.52
2018-10-05T19:40:40.472Z,99123.55
2018-10-05T19:43:10.988Z,99117.44
2018-10-05T19:45:41.754Z,99122.25
2018-10-05T19:48:12.321Z,99122.25
2018-10-05T19:50:42.976Z,99114.47
2018-10-05T19:53:13.740Z,99110.80
2018-10-05T19:55:44.321Z,99113.23
2018-10-05T19:58:14.893Z,99111.78
2018-10-05T20:00:45.407Z,99113.31
2018-10-05T20:03:18.826Z,99119.18
2018-10-05T20:05:50.636Z,99114.61
2018-10-05T20:08:21.202Z,99114.21
2018-10-05T20:10:51.921Z,99109.42
2018-10-05T20:13:22.547Z,99116.05
2018-10-05T20:15:53.182Z,99123.84
2018-10-05T20:18:23.786Z,99113.45
2018-10-05T20:20:55.572Z,99112.87
2018-10-05T20:23:26.175Z,99096.84
2018-10-05T20:25:56.935Z,99104.77
2018-10-05T20:28:27.652Z,99096.22
2018-10-05T20:30:58.251Z,99105.61
2018-10-05T20:33:28.910Z,99101.72
2018-10-05T20:35:59.533Z,99097.35
2018-10-05T20:38:30.193Z,99098.91
2018-10-05T20:41:00.823Z,99098.28
2018-10-05T20:43:31.289Z,99104.23
2018-10-05T20:46:02.161Z,99106.83
2018-10-05T20:48:32.801Z,99091.66
2018-10-05T20:51:03.547Z,99097.66
2018-10-05T20:53:34.157Z,99089.43
2018-10-05T20:56:04.779Z,99092.79
2018-10-05T20:58:35.296Z,99094.53
2018-10-05T21:01:06.111Z,99089.74
2018-10-05T21:03:36.659Z,99076.86
2018-10-05T21:06:07.256Z,99084.55
2018-10-05T21:08:37.726Z,99083.94
2018-10-05T21:11:08.351Z,99084.33
2018-10-05T21:13:38.928Z,99084.70
2018-10-05T21:16:09.548Z,99074.72
2018-10-05T21:18:40.076Z,99083.48
2018-10-05T21:21:10.957Z,99085.15
2018-10-05T21:23:41.653Z,99086.22
2018-10-05T21:26:12.364Z,99083.94
2018-10-05T21:28:42.939Z,99081.56
2018-10-05T21:31:13.470Z,99084.33
2018-10-05T21:33:44.073Z,99083.48
2018-10-05T21:36:14.794Z,99082.18
2018-10-05T21:38:45.426Z,99079.19
2018-10-05T21:41:16.058Z,99079.95
2018-10-05T21:43:46.712Z,99077.98
2018-10-05T21:46:17.573Z,99081.64
2018-10-05T21:48:48.022Z,99078.42
2018-10-05T21:51:19.579Z,99074.39
2018-10-05T21:53:50.226Z,99079.72
2018-10-05T21:56:20.846Z,99076.05
2018-10-05T21:58:51.381Z,99078.28
2018-10-05T22:01:21.980Z,99068.97
2018-10-05T22:03:52.462Z,99076.31
2018-10-05T22:06:24.860Z,99077.61
2018-10-05T22:08:55.472Z,99069.28
2018-10-05T22:11:26.056Z,99064.77
2018-10-05T22:13:56.687Z,99075.91
2018-10-05T22:16:27.252Z,99068.97
2018-10-05T22:18:57.812Z,99075.02
2018-10-05T22:21:28.473Z,99061.27
2018-10-05T22:23:59.211Z,99069.42
2018-10-05T22:26:29.967Z,99069.88
2018-10-05T22:29:00.548Z,99064.45
2018-10-05T22:31:31.955Z,99057.73
2018-10-05T22:34:08.861Z,99059.93
2018-10-05T22:36:41.860Z,99054.14
2018-10-05T22:39:12.366Z,99054.61
2018-10-05T22:41:42.926Z,99057.44
2018-10-05T22:44:13.453Z,99052.95
2018-10-05T22:46:44.536Z,99056.00
2018-10-05T22:49:15.056Z,99052.10
2018-10-05T22:51:45.629Z,99047.97
2018-10-05T22:54:16.093Z,99052.54
2018-10-05T22:56:46.685Z,99062.25
2018-10-05T22:59:17.225Z,99055.91
2018-10-05T23:01:48.255Z,99056.22
2018-10-05T23:04:19.450Z,99050.57
2018-10-05T23:06:50.068Z,99053.22
2018-10-05T23:09:20.554Z,99057.74
2018-10-05T23:11:51.047Z,99055.06
2018-10-05T23:14:23.373Z,99054.48
2018-10-05T23:16:53.919Z,99053.09
2018-10-05T23:19:24.544Z,99046.53
2018-10-05T23:21:55.088Z,99052.80
2018-10-05T23:24:25.652Z,99049.30
2018-10-05T23:26:56.457Z,99043.48
2018-10-05T23:29:26.977Z,99044.69
2018-10-05T23:31:57.514Z,99047.77
2018-10-05T23:34:28.044Z,99033.42
2018-10-05T23:37:00.876Z,99038.38
2018-10-05T23:39:31.325Z,99032.75
2018-10-05T23:42:01.838Z,99030.66
2018-10-05T23:44:32.377Z,99026.48
2018-10-05T23:47:03.140Z,99028.99
2018-10-05T23:49:34.660Z,99028.06
2018-10-05T23:52:16.070Z,99026.94
2018-10-05T23:54:47.221Z,99017.02
2018-10-05T23:57:17.796Z,99015.41
2018-10-05T23:59:50.461Z,99015.63
